sensor_id;sensor_type;location;lat;lon;timestamp;P1;durP1;ratioP1;P2;durP2;ratioP2
64615;SDS011;51027;42.162;24.754;2022-07-26T00:01:41;18.92;;;8.93;;
64615;SDS011;51027;42.162;24.754;2022-07-26T00:04:07;17.55;;;9.18;;
64615;SDS011;51027;42.162;24.754;2022-07-26T00:06:32;18.77;;;9.48;;
64615;SDS011;51027;42.162;24.754;2022-07-26T00:08:58;18.08;;;8.65;;
64615;SDS011;51027;42.162;24.754;2022-07-26T00:11:24;18.80;;;9.70;;
64615;SDS011;51027;42.162;24.754;2022-07-26T00:13:51;19.52;;;9.90;;
64615;SDS011;51027;42.162;24.754;2022-07-26T00:16:17;19.05;;;9.57;;
64615;SDS011;51027;42.162;24.754;2022-07-26T00:18:42;18.65;;;9.02;;
64615;SDS011;51027;42.162;24.754;2022-07-26T00:21:08;17.83;;;9.70;;
64615;SDS011;51027;42.162;24.754;2022-07-26T00:23:34;17.95;;;9.15;;
64615;SDS011;51027;42.162;24.754;2022-07-26T00:25:59;20.38;;;9.88;;
64615;SDS011;51027;42.162;24.754;2022-07-26T00:28:25;19.42;;;9.43;;
64615;SDS011;51027;42.162;24.754;2022-07-26T00:30:50;16.80;;;8.82;;
64615;SDS011;51027;42.162;24.754;2022-07-26T00:33:16;19.65;;;10.13;;
64615;SDS011;51027;42.162;24.754;2022-07-26T00:35:41;18.27;;;9.30;;
64615;SDS011;51027;42.162;24.754;2022-07-26T00:38:07;18.13;;;9.23;;
64615;SDS011;51027;42.162;24.754;2022-07-26T00:40:32;18.85;;;9.77;;
64615;SDS011;51027;42.162;24.754;2022-07-26T00:42:57;18.35;;;9.85;;
64615;SDS011;51027;42.162;24.754;2022-07-26T00:45:23;17.60;;;8.90;;
64615;SDS011;51027;42.162;24.754;2022-07-26T00:47:49;17.55;;;9.60;;
64615;SDS011;51027;42.162;24.754;2022-07-26T00:50:15;17.85;;;9.35;;
64615;SDS011;51027;42.162;24.754;2022-07-26T00:52:42;17.48;;;9.15;;
64615;SDS011;51027;42.162;24.754;2022-07-26T00:55:09;22.92;;;9.43;;
64615;SDS011;51027;42.162;24.754;2022-07-26T00:57:35;18.70;;;9.85;;
64615;SDS011;51027;42.162;24.754;2022-07-26T01:00:04;17.02;;;9.15;;
64615;SDS011;51027;42.162;24.754;2022-07-26T01:02:32;17.45;;;9.57;;
64615;SDS011;51027;42.162;24.754;2022-07-26T01:04:57;17.63;;;10.05;;
64615;SDS011;51027;42.162;24.754;2022-07-26T01:07:23;18.13;;;9.10;;
64615;SDS011;51027;42.162;24.754;2022-07-26T01:09:48;19.45;;;9.70;;
64615;SDS011;51027;42.162;24.754;2022-07-26T01:12:14;18.85;;;9.43;;
64615;SDS011;51027;42.162;24.754;2022-07-26T01:14:46;18.55;;;9.70;;
64615;SDS011;51027;42.162;24.754;2022-07-26T01:17:12;18.10;;;9.70;;
64615;SDS011;51027;42.162;24.754;2022-07-26T01:19:39;18.77;;;8.75;;
64615;SDS011;51027;42.162;24.754;2022-07-26T01:22:05;17.52;;;8.77;;
64615;SDS011;51027;42.162;24.754;2022-07-26T01:24:31;17.75;;;8.70;;
64615;SDS011;51027;42.162;24.754;2022-07-26T01:26:56;17.25;;;9.00;;
64615;SDS011;51027;42.162;24.754;2022-07-26T01:29:22;16.58;;;8.20;;
64615;SDS011;51027;42.162;24.754;2022-07-26T01:31:48;18.45;;;9.05;;
64615;SDS011;51027;42.162;24.754;2022-07-26T01:34:13;17.70;;;8.35;;
64615;SDS011;51027;42.162;24.754;2022-07-26T01:36:39;16.80;;;8.85;;
64615;SDS011;51027;42.162;24.754;2022-07-26T01:39:04;17.08;;;8.00;;
64615;SDS011;51027;42.162;24.754;2022-07-26T01:41:30;15.90;;;8.20;;
64615;SDS011;51027;42.162;24.754;2022-07-26T01:43:56;20.63;;;8.25;;
64615;SDS011;51027;42.162;24.754;2022-07-26T01:46:21;15.35;;;8.27;;
64615;SDS011;51027;42.162;24.754;2022-07-26T01:48:47;17.88;;;7.53;;
64615;SDS011;51027;42.162;24.754;2022-07-26T01:51:12;17.30;;;7.85;;
64615;SDS011;51027;42.162;24.754;2022-07-26T01:53:37;17.33;;;8.25;;
64615;SDS011;51027;42.162;24.754;2022-07-26T01:56:03;15.63;;;8.00;;
64615;SDS011;51027;42.162;24.754;2022-07-26T01:58:29;17.00;;;8.23;;
64615;SDS011;51027;42.162;24.754;2022-07-26T02:00:54;17.10;;;7.82;;
64615;SDS011;51027;42.162;24.754;2022-07-26T02:03:20;16.33;;;8.15;;
64615;SDS011;51027;42.162;24.754;2022-07-26T02:05:45;16.05;;;7.70;;
64615;SDS011;51027;42.162;24.754;2022-07-26T02:08:11;17.45;;;7.50;;
64615;SDS011;51027;42.162;24.754;2022-07-26T02:10:36;18.20;;;8.60;;
64615;SDS011;51027;42.162;24.754;2022-07-26T02:13:20;17.95;;;8.23;;
64615;SDS011;51027;42.162;24.754;2022-07-26T02:15:46;15.77;;;7.63;;
64615;SDS011;51027;42.162;24.754;2022-07-26T02:18:11;17.73;;;8.30;;
64615;SDS011;51027;42.162;24.754;2022-07-26T02:20:37;16.42;;;8.93;;
64615;SDS011;51027;42.162;24.754;2022-07-26T02:23:03;17.65;;;8.43;;
64615;SDS011;51027;42.162;24.754;2022-07-26T02:25:30;19.10;;;10.80;;
64615;SDS011;51027;42.162;24.754;2022-07-26T02:27:55;24.20;;;13.18;;
64615;SDS011;51027;42.162;24.754;2022-07-26T02:30:21;24.58;;;13.23;;
64615;SDS011;51027;42.162;24.754;2022-07-26T02:32:47;26.00;;;15.20;;
64615;SDS011;51027;42.162;24.754;2022-07-26T02:35:13;34.03;;;19.48;;
64615;SDS011;51027;42.162;24.754;2022-07-26T02:37:38;31.48;;;17.98;;
64615;SDS011;51027;42.162;24.754;2022-07-26T02:40:07;32.90;;;18.00;;
64615;SDS011;51027;42.162;24.754;2022-07-26T02:42:33;33.17;;;18.65;;
64615;SDS011;51027;42.162;24.754;2022-07-26T02:44:58;29.92;;;14.88;;
64615;SDS011;51027;42.162;24.754;2022-07-26T02:47:24;27.52;;;13.85;;
64615;SDS011;51027;42.162;24.754;2022-07-26T02:49:49;23.98;;;13.02;;
64615;SDS011;51027;42.162;24.754;2022-07-26T02:52:15;22.73;;;11.15;;
64615;SDS011;51027;42.162;24.754;2022-07-26T02:54:41;20.42;;;10.43;;
64615;SDS011;51027;42.162;24.754;2022-07-26T02:57:07;19.67;;;8.98;;
64615;SDS011;51027;42.162;24.754;2022-07-26T02:59:32;19.55;;;8.20;;
64615;SDS011;51027;42.162;24.754;2022-07-26T03:01:57;17.08;;;7.28;;
64615;SDS011;51027;42.162;24.754;2022-07-26T03:04:23;19.63;;;8.98;;
64615;SDS011;51027;42.162;24.754;2022-07-26T03:06:49;21.95;;;9.73;;
64615;SDS011;51027;42.162;24.754;2022-07-26T03:09:14;27.42;;;12.65;;
64615;SDS011;51027;42.162;24.754;2022-07-26T03:11:40;24.25;;;14.00;;
64615;SDS011;51027;42.162;24.754;2022-07-26T03:14:05;25.70;;;15.35;;
64615;SDS011;51027;42.162;24.754;2022-07-26T03:16:30;23.13;;;12.77;;
64615;SDS011;51027;42.162;24.754;2022-07-26T03:18:56;18.55;;;9.95;;
64615;SDS011;51027;42.162;24.754;2022-07-26T03:21:22;20.75;;;10.30;;
64615;SDS011;51027;42.162;24.754;2022-07-26T03:23:47;20.02;;;9.30;;
64615;SDS011;51027;42.162;24.754;2022-07-26T03:26:13;18.52;;;9.10;;
64615;SDS011;51027;42.162;24.754;2022-07-26T03:28:39;19.40;;;9.63;;
64615;SDS011;51027;42.162;24.754;2022-07-26T03:31:06;17.70;;;9.25;;
64615;SDS011;51027;42.162;24.754;2022-07-26T03:33:32;19.92;;;9.63;;
64615;SDS011;51027;42.162;24.754;2022-07-26T03:35:57;19.92;;;9.75;;
64615;SDS011;51027;42.162;24.754;2022-07-26T03:38:23;20.77;;;10.50;;
64615;SDS011;51027;42.162;24.754;2022-07-26T03:40:49;22.25;;;10.77;;
64615;SDS011;51027;42.162;24.754;2022-07-26T03:43:14;24.67;;;12.82;;
64615;SDS011;51027;42.162;24.754;2022-07-26T03:45:40;21.92;;;12.70;;
64615;SDS011;51027;42.162;24.754;2022-07-26T03:48:06;24.25;;;13.00;;
64615;SDS011;51027;42.162;24.754;2022-07-26T03:50:32;22.75;;;12.88;;
64615;SDS011;51027;42.162;24.754;2022-07-26T03:52:57;21.48;;;12.25;;
64615;SDS011;51027;42.162;24.754;2022-07-26T03:55:23;21.00;;;12.70;;
64615;SDS011;51027;42.162;24.754;2022-07-26T03:58:07;20.85;;;12.93;;
64615;SDS011;51027;42.162;24.754;2022-07-26T04:00:32;21.13;;;11.80;;
64615;SDS011;51027;42.162;24.754;2022-07-26T04:02:58;24.10;;;11.88;;
64615;SDS011;51027;42.162;24.754;2022-07-26T04:05:23;21.65;;;12.30;;
64615;SDS011;51027;42.162;24.754;2022-07-26T04:07:49;21.95;;;11.80;;
64615;SDS011;51027;42.162;24.754;2022-07-26T04:10:15;21.70;;;12.63;;
64615;SDS011;51027;42.162;24.754;2022-07-26T04:12:41;21.40;;;11.93;;
64615;SDS011;51027;42.162;24.754;2022-07-26T04:15:07;22.85;;;12.75;;
64615;SDS011;51027;42.162;24.754;2022-07-26T04:17:39;22.48;;;12.40;;
64615;SDS011;51027;42.162;24.754;2022-07-26T04:20:05;21.80;;;13.57;;
64615;SDS011;51027;42.162;24.754;2022-07-26T04:22:34;24.50;;;13.00;;
64615;SDS011;51027;42.162;24.754;2022-07-26T04:25:00;23.70;;;12.35;;
64615;SDS011;51027;42.162;24.754;2022-07-26T04:27:26;25.10;;;12.40;;
64615;SDS011;51027;42.162;24.754;2022-07-26T04:29:51;22.48;;;13.13;;
64615;SDS011;51027;42.162;24.754;2022-07-26T04:32:17;22.95;;;12.65;;
64615;SDS011;51027;42.162;24.754;2022-07-26T04:34:42;25.90;;;13.30;;
64615;SDS011;51027;42.162;24.754;2022-07-26T04:37:07;23.63;;;12.57;;
64615;SDS011;51027;42.162;24.754;2022-07-26T04:39:33;25.30;;;14.40;;
64615;SDS011;51027;42.162;24.754;2022-07-26T04:41:58;24.98;;;12.48;;
64615;SDS011;51027;42.162;24.754;2022-07-26T04:44:24;26.48;;;14.15;;
64615;SDS011;51027;42.162;24.754;2022-07-26T04:46:49;26.30;;;14.40;;
64615;SDS011;51027;42.162;24.754;2022-07-26T04:49:15;25.92;;;14.23;;
64615;SDS011;51027;42.162;24.754;2022-07-26T04:51:40;27.33;;;14.23;;
64615;SDS011;51027;42.162;24.754;2022-07-26T04:54:06;24.58;;;14.65;;
64615;SDS011;51027;42.162;24.754;2022-07-26T04:56:31;29.52;;;15.20;;
64615;SDS011;51027;42.162;24.754;2022-07-26T04:58:56;26.65;;;15.73;;
64615;SDS011;51027;42.162;24.754;2022-07-26T05:01:22;30.33;;;15.35;;
64615;SDS011;51027;42.162;24.754;2022-07-26T05:03:47;24.85;;;14.00;;
64615;SDS011;51027;42.162;24.754;2022-07-26T05:06:13;23.67;;;13.52;;
64615;SDS011;51027;42.162;24.754;2022-07-26T05:08:38;24.15;;;14.07;;
64615;SDS011;51027;42.162;24.754;2022-07-26T05:11:06;25.50;;;14.63;;
64615;SDS011;51027;42.162;24.754;2022-07-26T05:13:31;24.98;;;14.50;;
64615;SDS011;51027;42.162;24.754;2022-07-26T05:15:57;25.70;;;13.60;;
64615;SDS011;51027;42.162;24.754;2022-07-26T05:18:23;25.63;;;14.68;;
64615;SDS011;51027;42.162;24.754;2022-07-26T05:20:49;25.65;;;14.32;;
64615;SDS011;51027;42.162;24.754;2022-07-26T05:23:15;24.73;;;14.20;;
64615;SDS011;51027;42.162;24.754;2022-07-26T05:25:40;24.17;;;15.10;;
64615;SDS011;51027;42.162;24.754;2022-07-26T05:28:06;27.65;;;16.77;;
64615;SDS011;51027;42.162;24.754;2022-07-26T05:30:31;25.15;;;14.75;;
64615;SDS011;51027;42.162;24.754;2022-07-26T05:32:57;26.00;;;13.77;;
64615;SDS011;51027;42.162;24.754;2022-07-26T05:35:22;25.70;;;13.63;;
64615;SDS011;51027;42.162;24.754;2022-07-26T05:37:48;25.55;;;14.18;;
64615;SDS011;51027;42.162;24.754;2022-07-26T05:40:13;23.85;;;14.40;;
64615;SDS011;51027;42.162;24.754;2022-07-26T05:42:39;26.40;;;14.95;;
64615;SDS011;51027;42.162;24.754;2022-07-26T05:45:05;25.77;;;14.25;;
64615;SDS011;51027;42.162;24.754;2022-07-26T05:47:31;23.88;;;14.02;;
64615;SDS011;51027;42.162;24.754;2022-07-26T05:49:56;26.30;;;13.40;;
64615;SDS011;51027;42.162;24.754;2022-07-26T05:52:22;22.83;;;13.02;;
64615;SDS011;51027;42.162;24.754;2022-07-26T05:54:47;23.50;;;13.52;;
64615;SDS011;51027;42.162;24.754;2022-07-26T05:57:13;22.63;;;13.55;;
64615;SDS011;51027;42.162;24.754;2022-07-26T05:59:38;23.58;;;14.18;;
64615;SDS011;51027;42.162;24.754;2022-07-26T06:02:04;24.52;;;14.63;;
64615;SDS011;51027;42.162;24.754;2022-07-26T06:04:31;22.20;;;13.95;;
64615;SDS011;51027;42.162;24.754;2022-07-26T06:06:57;23.90;;;14.95;;
64615;SDS011;51027;42.162;24.754;2022-07-26T06:09:22;23.70;;;14.77;;
64615;SDS011;51027;42.162;24.754;2022-07-26T06:11:51;22.52;;;13.80;;
64615;SDS011;51027;42.162;24.754;2022-07-26T06:14:18;22.65;;;13.40;;
64615;SDS011;51027;42.162;24.754;2022-07-26T06:16:44;21.90;;;13.43;;
64615;SDS011;51027;42.162;24.754;2022-07-26T06:19:13;23.35;;;14.00;;
64615;SDS011;51027;42.162;24.754;2022-07-26T06:21:39;24.95;;;14.25;;
64615;SDS011;51027;42.162;24.754;2022-07-26T06:24:06;22.55;;;14.30;;
64615;SDS011;51027;42.162;24.754;2022-07-26T06:26:31;23.65;;;14.73;;
64615;SDS011;51027;42.162;24.754;2022-07-26T06:28:57;22.83;;;14.18;;
64615;SDS011;51027;42.162;24.754;2022-07-26T06:31:23;23.95;;;15.07;;
64615;SDS011;51027;42.162;24.754;2022-07-26T06:33:48;22.00;;;13.95;;
64615;SDS011;51027;42.162;24.754;2022-07-26T06:36:15;22.27;;;13.82;;
64615;SDS011;51027;42.162;24.754;2022-07-26T06:38:41;22.00;;;13.32;;
64615;SDS011;51027;42.162;24.754;2022-07-26T06:41:06;21.95;;;14.20;;
64615;SDS011;51027;42.162;24.754;2022-07-26T06:43:32;22.13;;;13.57;;
64615;SDS011;51027;42.162;24.754;2022-07-26T06:45:57;22.83;;;14.40;;
64615;SDS011;51027;42.162;24.754;2022-07-26T06:48:23;25.33;;;14.07;;
64615;SDS011;51027;42.162;24.754;2022-07-26T06:50:48;22.63;;;13.98;;
64615;SDS011;51027;42.162;24.754;2022-07-26T06:53:14;22.48;;;13.77;;
64615;SDS011;51027;42.162;24.754;2022-07-26T06:55:40;23.05;;;14.52;;
64615;SDS011;51027;42.162;24.754;2022-07-26T06:58:05;23.77;;;14.73;;
64615;SDS011;51027;42.162;24.754;2022-07-26T07:00:31;23.17;;;14.13;;
64615;SDS011;51027;42.162;24.754;2022-07-26T07:02:56;22.25;;;13.55;;
64615;SDS011;51027;42.162;24.754;2022-07-26T07:05:22;21.10;;;13.60;;
64615;SDS011;51027;42.162;24.754;2022-07-26T07:07:47;22.15;;;14.27;;
64615;SDS011;51027;42.162;24.754;2022-07-26T07:10:13;21.55;;;13.52;;
64615;SDS011;51027;42.162;24.754;2022-07-26T07:12:38;23.80;;;14.23;;
64615;SDS011;51027;42.162;24.754;2022-07-26T07:15:05;23.65;;;15.15;;
64615;SDS011;51027;42.162;24.754;2022-07-26T07:17:31;23.50;;;14.20;;
64615;SDS011;51027;42.162;24.754;2022-07-26T07:19:56;22.15;;;14.57;;
64615;SDS011;51027;42.162;24.754;2022-07-26T07:22:22;21.88;;;14.25;;
64615;SDS011;51027;42.162;24.754;2022-07-26T07:24:47;24.02;;;15.02;;
64615;SDS011;51027;42.162;24.754;2022-07-26T07:27:13;23.73;;;15.07;;
64615;SDS011;51027;42.162;24.754;2022-07-26T07:29:38;25.63;;;15.25;;
64615;SDS011;51027;42.162;24.754;2022-07-26T07:32:05;23.50;;;14.98;;
64615;SDS011;51027;42.162;24.754;2022-07-26T07:34:30;24.17;;;15.85;;
64615;SDS011;51027;42.162;24.754;2022-07-26T07:36:56;23.58;;;15.60;;
64615;SDS011;51027;42.162;24.754;2022-07-26T07:39:22;24.90;;;14.63;;
64615;SDS011;51027;42.162;24.754;2022-07-26T07:41:47;23.17;;;15.10;;
64615;SDS011;51027;42.162;24.754;2022-07-26T07:44:13;22.35;;;14.85;;
64615;SDS011;51027;42.162;24.754;2022-07-26T07:46:39;22.70;;;14.90;;
64615;SDS011;51027;42.162;24.754;2022-07-26T07:49:04;24.92;;;15.20;;
64615;SDS011;51027;42.162;24.754;2022-07-26T07:51:31;24.88;;;15.43;;
64615;SDS011;51027;42.162;24.754;2022-07-26T07:53:57;23.25;;;16.08;;
64615;SDS011;51027;42.162;24.754;2022-07-26T07:56:23;24.27;;;15.68;;
64615;SDS011;51027;42.162;24.754;2022-07-26T07:58:48;24.55;;;16.35;;
64615;SDS011;51027;42.162;24.754;2022-07-26T08:01:14;23.50;;;15.13;;
64615;SDS011;51027;42.162;24.754;2022-07-26T08:03:39;24.00;;;15.75;;
64615;SDS011;51027;42.162;24.754;2022-07-26T08:06:06;24.75;;;14.90;;
64615;SDS011;51027;42.162;24.754;2022-07-26T08:08:33;24.63;;;15.50;;
64615;SDS011;51027;42.162;24.754;2022-07-26T08:10:59;24.52;;;15.13;;
64615;SDS011;51027;42.162;24.754;2022-07-26T08:13:25;23.52;;;15.60;;
64615;SDS011;51027;42.162;24.754;2022-07-26T08:15:51;22.33;;;15.50;;
64615;SDS011;51027;42.162;24.754;2022-07-26T08:18:17;24.38;;;15.45;;
64615;SDS011;51027;42.162;24.754;2022-07-26T08:20:44;24.70;;;14.73;;
64615;SDS011;51027;42.162;24.754;2022-07-26T08:23:09;23.00;;;15.38;;
64615;SDS011;51027;42.162;24.754;2022-07-26T08:25:35;24.38;;;15.40;;
64615;SDS011;51027;42.162;24.754;2022-07-26T08:28:00;25.05;;;15.35;;
64615;SDS011;51027;42.162;24.754;2022-07-26T08:30:26;21.67;;;14.90;;
64615;SDS011;51027;42.162;24.754;2022-07-26T08:32:51;22.42;;;14.85;;
64615;SDS011;51027;42.162;24.754;2022-07-26T08:35:16;25.00;;;16.23;;
64615;SDS011;51027;42.162;24.754;2022-07-26T08:37:42;23.83;;;15.15;;
64615;SDS011;51027;42.162;24.754;2022-07-26T08:40:07;25.70;;;15.45;;
64615;SDS011;51027;42.162;24.754;2022-07-26T08:42:33;25.38;;;15.38;;
64615;SDS011;51027;42.162;24.754;2022-07-26T08:44:59;22.98;;;15.02;;
64615;SDS011;51027;42.162;24.754;2022-07-26T08:47:25;24.15;;;14.88;;
64615;SDS011;51027;42.162;24.754;2022-07-26T08:49:50;24.27;;;15.10;;
64615;SDS011;51027;42.162;24.754;2022-07-26T08:52:15;21.98;;;14.52;;
64615;SDS011;51027;42.162;24.754;2022-07-26T08:54:42;23.80;;;15.57;;
64615;SDS011;51027;42.162;24.754;2022-07-26T08:57:08;24.30;;;16.10;;
64615;SDS011;51027;42.162;24.754;2022-07-26T08:59:34;23.77;;;16.45;;
64615;SDS011;51027;42.162;24.754;2022-07-26T09:04:30;23.17;;;15.30;;
64615;SDS011;51027;42.162;24.754;2022-07-26T09:07:04;24.35;;;15.60;;
64615;SDS011;51027;42.162;24.754;2022-07-26T09:09:31;23.40;;;15.98;;
64615;SDS011;51027;42.162;24.754;2022-07-26T09:11:57;21.13;;;14.88;;
64615;SDS011;51027;42.162;24.754;2022-07-26T09:14:36;23.25;;;16.08;;
64615;SDS011;51027;42.162;24.754;2022-07-26T09:17:02;26.27;;;16.30;;
64615;SDS011;51027;42.162;24.754;2022-07-26T09:19:28;25.38;;;16.85;;
64615;SDS011;51027;42.162;24.754;2022-07-26T09:21:54;25.75;;;17.83;;
64615;SDS011;51027;42.162;24.754;2022-07-26T09:24:54;24.67;;;16.42;;
64615;SDS011;51027;42.162;24.754;2022-07-26T09:27:14;24.30;;;16.17;;
64615;SDS011;51027;42.162;24.754;2022-07-26T09:29:44;25.15;;;16.75;;
64615;SDS011;51027;42.162;24.754;2022-07-26T09:32:13;22.27;;;15.88;;
64615;SDS011;51027;42.162;24.754;2022-07-26T09:34:41;25.20;;;16.05;;
64615;SDS011;51027;42.162;24.754;2022-07-26T09:37:07;24.70;;;15.38;;
64615;SDS011;51027;42.162;24.754;2022-07-26T09:39:37;23.98;;;14.90;;
64615;SDS011;51027;42.162;24.754;2022-07-26T09:42:18;22.05;;;15.27;;
64615;SDS011;51027;42.162;24.754;2022-07-26T09:44:43;21.15;;;13.75;;
64615;SDS011;51027;42.162;24.754;2022-07-26T09:47:08;22.42;;;13.95;;
64615;SDS011;51027;42.162;24.754;2022-07-26T09:49:34;21.02;;;13.80;;
64615;SDS011;51027;42.162;24.754;2022-07-26T09:51:59;22.70;;;13.93;;
64615;SDS011;51027;42.162;24.754;2022-07-26T09:56:53;21.08;;;14.63;;
64615;SDS011;51027;42.162;24.754;2022-07-26T09:59:20;23.60;;;14.07;;
64615;SDS011;51027;42.162;24.754;2022-07-26T10:01:47;24.80;;;14.25;;
64615;SDS011;51027;42.162;24.754;2022-07-26T10:04:14;21.38;;;14.02;;
64615;SDS011;51027;42.162;24.754;2022-07-26T10:06:41;22.00;;;15.23;;
64615;SDS011;51027;42.162;24.754;2022-07-26T10:09:07;23.02;;;15.95;;
64615;SDS011;51027;42.162;24.754;2022-07-26T10:11:50;25.98;;;16.58;;
64615;SDS011;51027;42.162;24.754;2022-07-26T10:16:56;20.60;;;14.52;;
64615;SDS011;51027;42.162;24.754;2022-07-26T10:22:24;20.95;;;14.50;;
64615;SDS011;51027;42.162;24.754;2022-07-26T10:24:52;21.85;;;14.23;;
64615;SDS011;51027;42.162;24.754;2022-07-26T10:30:19;21.27;;;13.90;;
64615;SDS011;51027;42.162;24.754;2022-07-26T10:40:54;19.75;;;13.88;;
64615;SDS011;51027;42.162;24.754;2022-07-26T10:43:21;22.15;;;13.10;;
64615;SDS011;51027;42.162;24.754;2022-07-26T10:45:47;20.45;;;12.73;;
64615;SDS011;51027;42.162;24.754;2022-07-26T10:48:20;22.77;;;13.52;;
64615;SDS011;51027;42.162;24.754;2022-07-26T10:50:50;22.77;;;13.85;;
64615;SDS011;51027;42.162;24.754;2022-07-26T10:55:45;20.60;;;12.35;;
64615;SDS011;51027;42.162;24.754;2022-07-26T10:58:12;19.63;;;11.63;;
64615;SDS011;51027;42.162;24.754;2022-07-26T11:00:38;19.48;;;12.15;;
64615;SDS011;51027;42.162;24.754;2022-07-26T11:03:03;18.13;;;12.05;;
64615;SDS011;51027;42.162;24.754;2022-07-26T11:05:30;19.25;;;12.40;;
64615;SDS011;51027;42.162;24.754;2022-07-26T11:08:03;22.00;;;13.65;;
64615;SDS011;51027;42.162;24.754;2022-07-26T11:10:41;22.77;;;14.35;;
64615;SDS011;51027;42.162;24.754;2022-07-26T11:15:35;20.15;;;13.23;;
64615;SDS011;51027;42.162;24.754;2022-07-26T11:18:09;20.65;;;12.35;;
64615;SDS011;51027;42.162;24.754;2022-07-26T11:20:39;20.45;;;12.52;;
64615;SDS011;51027;42.162;24.754;2022-07-26T11:26:18;18.33;;;11.45;;
64615;SDS011;51027;42.162;24.754;2022-07-26T11:29:00;19.40;;;10.93;;
64615;SDS011;51027;42.162;24.754;2022-07-26T11:31:27;18.67;;;11.23;;
64615;SDS011;51027;42.162;24.754;2022-07-26T11:34:01;19.83;;;11.55;;
64615;SDS011;51027;42.162;24.754;2022-07-26T11:36:31;22.95;;;10.85;;
64615;SDS011;51027;42.162;24.754;2022-07-26T11:39:01;18.48;;;11.90;;
64615;SDS011;51027;42.162;24.754;2022-07-26T11:41:28;18.35;;;11.13;;
64615;SDS011;51027;42.162;24.754;2022-07-26T11:43:55;18.15;;;10.73;;
64615;SDS011;51027;42.162;24.754;2022-07-26T11:46:21;18.33;;;10.48;;
64615;SDS011;51027;42.162;24.754;2022-07-26T11:48:51;16.83;;;10.30;;
64615;SDS011;51027;42.162;24.754;2022-07-26T11:53:44;18.83;;;10.80;;
64615;SDS011;51027;42.162;24.754;2022-07-26T11:56:17;20.50;;;10.57;;
64615;SDS011;51027;42.162;24.754;2022-07-26T11:58:48;16.70;;;9.93;;
64615;SDS011;51027;42.162;24.754;2022-07-26T12:01:16;18.45;;;11.20;;
64615;SDS011;51027;42.162;24.754;2022-07-26T12:03:45;18.98;;;10.40;;
64615;SDS011;51027;42.162;24.754;2022-07-26T12:08:44;17.88;;;10.60;;
64615;SDS011;51027;42.162;24.754;2022-07-26T12:11:11;17.95;;;10.50;;
64615;SDS011;51027;42.162;24.754;2022-07-26T12:13:54;16.88;;;9.80;;
64615;SDS011;51027;42.162;24.754;2022-07-26T12:16:40;21.15;;;10.30;;
64615;SDS011;51027;42.162;24.754;2022-07-26T12:21:43;18.00;;;10.75;;
64615;SDS011;51027;42.162;24.754;2022-07-26T12:24:10;19.48;;;10.98;;
64615;SDS011;51027;42.162;24.754;2022-07-26T12:26:37;18.23;;;10.77;;
64615;SDS011;51027;42.162;24.754;2022-07-26T12:29:03;17.92;;;10.18;;
64615;SDS011;51027;42.162;24.754;2022-07-26T12:32:04;18.17;;;10.40;;
64615;SDS011;51027;42.162;24.754;2022-07-26T12:34:35;17.77;;;10.88;;
64615;SDS011;51027;42.162;24.754;2022-07-26T12:37:05;17.73;;;10.70;;
64615;SDS011;51027;42.162;24.754;2022-07-26T12:39:35;18.88;;;10.80;;
64615;SDS011;51027;42.162;24.754;2022-07-26T12:42:20;17.50;;;10.00;;
64615;SDS011;51027;42.162;24.754;2022-07-26T12:44:47;17.50;;;10.60;;
64615;SDS011;51027;42.162;24.754;2022-07-26T12:47:12;17.13;;;9.85;;
64615;SDS011;51027;42.162;24.754;2022-07-26T12:49:38;16.98;;;10.35;;
64615;SDS011;51027;42.162;24.754;2022-07-26T12:52:03;19.13;;;10.63;;
64615;SDS011;51027;42.162;24.754;2022-07-26T12:54:29;16.25;;;10.07;;
64615;SDS011;51027;42.162;24.754;2022-07-26T12:56:55;16.80;;;9.77;;
64615;SDS011;51027;42.162;24.754;2022-07-26T12:59:20;16.60;;;9.93;;
64615;SDS011;51027;42.162;24.754;2022-07-26T13:01:46;16.75;;;10.05;;
64615;SDS011;51027;42.162;24.754;2022-07-26T13:04:11;19.55;;;10.30;;
64615;SDS011;51027;42.162;24.754;2022-07-26T13:06:36;17.70;;;10.52;;
64615;SDS011;51027;42.162;24.754;2022-07-26T13:09:02;18.30;;;10.57;;
64615;SDS011;51027;42.162;24.754;2022-07-26T13:11:27;20.50;;;11.13;;
64615;SDS011;51027;42.162;24.754;2022-07-26T13:13:54;17.80;;;10.32;;
64615;SDS011;51027;42.162;24.754;2022-07-26T13:16:19;19.00;;;10.95;;
64615;SDS011;51027;42.162;24.754;2022-07-26T13:18:45;17.48;;;9.82;;
64615;SDS011;51027;42.162;24.754;2022-07-26T13:21:11;18.58;;;10.48;;
64615;SDS011;51027;42.162;24.754;2022-07-26T13:23:36;18.80;;;10.88;;
64615;SDS011;51027;42.162;24.754;2022-07-26T13:26:02;17.90;;;10.18;;
64615;SDS011;51027;42.162;24.754;2022-07-26T13:28:27;18.33;;;10.40;;
64615;SDS011;51027;42.162;24.754;2022-07-26T13:30:53;21.48;;;11.07;;
64615;SDS011;51027;42.162;24.754;2022-07-26T13:33:18;17.90;;;10.80;;
64615;SDS011;51027;42.162;24.754;2022-07-26T13:35:44;17.73;;;10.75;;
64615;SDS011;51027;42.162;24.754;2022-07-26T13:38:09;17.83;;;11.15;;
64615;SDS011;51027;42.162;24.754;2022-07-26T13:40:35;20.10;;;10.90;;
64615;SDS011;51027;42.162;24.754;2022-07-26T13:43:00;18.52;;;11.35;;
64615;SDS011;51027;42.162;24.754;2022-07-26T13:45:25;19.40;;;10.75;;
64615;SDS011;51027;42.162;24.754;2022-07-26T13:47:51;19.08;;;11.50;;
64615;SDS011;51027;42.162;24.754;2022-07-26T13:50:17;19.10;;;10.95;;
64615;SDS011;51027;42.162;24.754;2022-07-26T13:52:42;17.42;;;10.75;;
64615;SDS011;51027;42.162;24.754;2022-07-26T13:55:08;18.67;;;11.13;;
64615;SDS011;51027;42.162;24.754;2022-07-26T13:57:33;18.27;;;11.05;;
64615;SDS011;51027;42.162;24.754;2022-07-26T13:59:58;19.17;;;10.90;;
64615;SDS011;51027;42.162;24.754;2022-07-26T14:02:24;18.25;;;11.73;;
64615;SDS011;51027;42.162;24.754;2022-07-26T14:04:49;19.40;;;10.75;;
64615;SDS011;51027;42.162;24.754;2022-07-26T14:07:15;19.42;;;11.52;;
64615;SDS011;51027;42.162;24.754;2022-07-26T14:09:40;17.52;;;10.65;;
64615;SDS011;51027;42.162;24.754;2022-07-26T14:12:06;19.23;;;11.35;;
64615;SDS011;51027;42.162;24.754;2022-07-26T14:14:31;17.90;;;10.63;;
64615;SDS011;51027;42.162;24.754;2022-07-26T14:16:57;19.92;;;10.90;;
64615;SDS011;51027;42.162;24.754;2022-07-26T14:19:22;16.50;;;10.23;;
64615;SDS011;51027;42.162;24.754;2022-07-26T14:21:48;18.58;;;10.95;;
64615;SDS011;51027;42.162;24.754;2022-07-26T14:24:15;18.20;;;10.82;;
64615;SDS011;51027;42.162;24.754;2022-07-26T14:26:41;20.17;;;11.85;;
64615;SDS011;51027;42.162;24.754;2022-07-26T14:29:06;18.00;;;11.55;;
64615;SDS011;51027;42.162;24.754;2022-07-26T14:31:32;20.00;;;11.10;;
64615;SDS011;51027;42.162;24.754;2022-07-26T14:33:58;19.10;;;11.30;;
64615;SDS011;51027;42.162;24.754;2022-07-26T14:36:23;18.88;;;11.50;;
64615;SDS011;51027;42.162;24.754;2022-07-26T14:38:48;18.88;;;11.00;;
64615;SDS011;51027;42.162;24.754;2022-07-26T14:41:14;20.52;;;12.40;;
64615;SDS011;51027;42.162;24.754;2022-07-26T14:43:40;20.38;;;12.30;;
64615;SDS011;51027;42.162;24.754;2022-07-26T14:46:07;19.45;;;11.38;;